sensor_id;sensor_type;location;lat;lon;timestamp;temperature;humidity
32201;DHT22;18701;45.588;5.288;2022-12-26T00:01:11;12.50;99.90
32201;DHT22;18701;45.588;5.288;2022-12-26T00:03:37;12.70;99.90
32201;DHT22;18701;45.588;5.288;2022-12-26T00:06:04;12.60;99.90
32201;DHT22;18701;45.588;5.288;2022-12-26T00:08:35;12.60;99.90
32201;DHT22;18701;45.588;5.288;2022-12-26T00:11:01;12.60;99.90
32201;DHT22;18701;45.588;5.288;2022-12-26T00:13:26;12.70;99.90
32201;DHT22;18701;45.588;5.288;2022-12-26T00:15:52;12.70;99.90
32201;DHT22;18701;45.588;5.288;2022-12-26T00:18:18;12.60;99.90
32201;DHT22;18701;45.588;5.288;2022-12-26T00:20:43;12.60;99.90
32201;DHT22;18701;45.588;5.288;2022-12-26T00:23:09;12.80;99.90
32201;DHT22;18701;45.588;5.288;2022-12-26T00:25:34;12.70;99.90
32201;DHT22;18701;45.588;5.288;2022-12-26T00:28:00;12.70;99.90
32201;DHT22;18701;45.588;5.288;2022-12-26T00:30:26;12.70;99.90
32201;DHT22;18701;45.588;5.288;2022-12-26T00:32:51;12.80;99.90
32201;DHT22;18701;45.588;5.288;2022-12-26T00:35:17;12.70;99.90
32201;DHT22;18701;45.588;5.288;2022-12-26T00:37:43;12.70;99.90
32201;DHT22;18701;45.588;5.288;2022-12-26T00:40:09;12.70;99.90
32201;DHT22;18701;45.588;5.288;2022-12-26T00:42:35;12.70;99.90
32201;DHT22;18701;45.588;5.288;2022-12-26T00:45:00;12.70;99.90
32201;DHT22;18701;45.588;5.288;2022-12-26T00:47:26;12.70;99.90
32201;DHT22;18701;45.588;5.288;2022-12-26T00:49:52;12.70;99.90
32201;DHT22;18701;45.588;5.288;2022-12-26T00:52:17;12.60;99.90
32201;DHT22;18701;45.588;5.288;2022-12-26T00:54:43;12.60;99.90
32201;DHT22;18701;45.588;5.288;2022-12-26T00:57:08;12.60;99.90
32201;DHT22;18701;45.588;5.288;2022-12-26T00:59:34;12.50;99.90
32201;DHT22;18701;45.588;5.288;2022-12-26T01:02:00;12.50;99.90
32201;DHT22;18701;45.588;5.288;2022-12-26T01:04:27;12.50;99.90
32201;DHT22;18701;45.588;5.288;2022-12-26T01:06:52;12.50;99.90
32201;DHT22;18701;45.588;5.288;2022-12-26T01:09:18;12.50;99.90
32201;DHT22;18701;45.588;5.288;2022-12-26T01:11:43;12.50;99.90
32201;DHT22;18701;45.588;5.288;2022-12-26T01:14:17;12.50;99.90
32201;DHT22;18701;45.588;5.288;2022-12-26T01:16:45;12.50;99.90
32201;DHT22;18701;45.588;5.288;2022-12-26T01:19:12;12.50;99.90
32201;DHT22;18701;45.588;5.288;2022-12-26T01:21:38;12.60;99.90
32201;DHT22;18701;45.588;5.288;2022-12-26T01:24:04;12.60;99.90
32201;DHT22;18701;45.588;5.288;2022-12-26T01:26:30;12.60;99.90
32201;DHT22;18701;45.588;5.288;2022-12-26T01:28:55;12.60;99.90
32201;DHT22;18701;45.588;5.288;2022-12-26T01:31:22;12.70;99.90
32201;DHT22;18701;45.588;5.288;2022-12-26T01:33:48;12.80;99.90
32201;DHT22;18701;45.588;5.288;2022-12-26T01:36:15;12.80;99.90
32201;DHT22;18701;45.588;5.288;2022-12-26T01:38:41;12.90;99.90
32201;DHT22;18701;45.588;5.288;2022-12-26T01:41:06;12.80;99.90
32201;DHT22;18701;45.588;5.288;2022-12-26T01:44:03;12.90;99.90
32201;DHT22;18701;45.588;5.288;2022-12-26T01:46:44;12.90;99.90
32201;DHT22;18701;45.588;5.288;2022-12-26T01:51:43;12.90;99.90
32201;DHT22;18701;45.588;5.288;2022-12-26T01:54:11;12.90;99.90
32201;DHT22;18701;45.588;5.288;2022-12-26T01:56:40;12.90;99.90
32201;DHT22;18701;45.588;5.288;2022-12-26T01:59:10;12.90;99.90
32201;DHT22;18701;45.588;5.288;2022-12-26T02:01:39;12.80;99.90
32201;DHT22;18701;45.588;5.288;2022-12-26T02:04:10;12.80;99.90
32201;DHT22;18701;45.588;5.288;2022-12-26T02:06:56;12.80;99.90
32201;DHT22;18701;45.588;5.288;2022-12-26T02:09:22;12.80;99.90
32201;DHT22;18701;45.588;5.288;2022-12-26T02:11:55;12.90;99.90
32201;DHT22;18701;45.588;5.288;2022-12-26T02:14:23;12.80;99.90
32201;DHT22;18701;45.588;5.288;2022-12-26T02:16:49;12.80;99.90
32201;DHT22;18701;45.588;5.288;2022-12-26T02:24:59;12.80;99.90
32201;DHT22;18701;45.588;5.288;2022-12-26T02:50:12;12.80;99.90
32201;DHT22;18701;45.588;5.288;2022-12-26T02:55:53;12.70;99.90
32201;DHT22;18701;45.588;5.288;2022-12-26T02:59:00;12.60;99.90
32201;DHT22;18701;45.588;5.288;2022-12-26T03:01:47;12.60;99.90
32201;DHT22;18701;45.588;5.288;2022-12-26T03:04:35;12.60;99.90
32201;DHT22;18701;45.588;5.288;2022-12-26T03:07:31;12.50;99.90
32201;DHT22;18701;45.588;5.288;2022-12-26T03:10:23;12.50;99.90
32201;DHT22;18701;45.588;5.288;2022-12-26T03:13:14;12.50;99.90
32201;DHT22;18701;45.588;5.288;2022-12-26T03:15:45;12.50;99.90
32201;DHT22;18701;45.588;5.288;2022-12-26T03:18:33;12.40;99.90
32201;DHT22;18701;45.588;5.288;2022-12-26T03:21:01;12.50;99.90
32201;DHT22;18701;45.588;5.288;2022-12-26T03:23:27;12.60;99.90
32201;DHT22;18701;45.588;5.288;2022-12-26T03:25:58;12.50;99.90
32201;DHT22;18701;45.588;5.288;2022-12-26T03:28:43;12.50;99.90
32201;DHT22;18701;45.588;5.288;2022-12-26T03:31:11;12.50;99.90
32201;DHT22;18701;45.588;5.288;2022-12-26T03:33:43;12.40;99.90
32201;DHT22;18701;45.588;5.288;2022-12-26T03:37:26;12.50;99.90
32201;DHT22;18701;45.588;5.288;2022-12-26T03:54:44;12.70;99.90
32201;DHT22;18701;45.588;5.288;2022-12-26T03:57:35;12.60;99.90
32201;DHT22;18701;45.588;5.288;2022-12-26T04:00:23;12.60;99.90
32201;DHT22;18701;45.588;5.288;2022-12-26T04:03:11;12.60;99.90
32201;DHT22;18701;45.588;5.288;2022-12-26T04:05:58;12.50;99.90
32201;DHT22;18701;45.588;5.288;2022-12-26T04:08:51;12.40;99.90
32201;DHT22;18701;45.588;5.288;2022-12-26T04:11:37;12.40;99.90
32201;DHT22;18701;45.588;5.288;2022-12-26T04:22:54;12.40;99.90
32201;DHT22;18701;45.588;5.288;2022-12-26T04:25:54;12.40;99.90
32201;DHT22;18701;45.588;5.288;2022-12-26T04:28:41;12.40;99.90
32201;DHT22;18701;45.588;5.288;2022-12-26T04:31:33;12.40;99.90
32201;DHT22;18701;45.588;5.288;2022-12-26T04:34:24;12.40;99.90
32201;DHT22;18701;45.588;5.288;2022-12-26T04:37:18;12.40;99.90
32201;DHT22;18701;45.588;5.288;2022-12-26T04:40:07;12.30;99.90
32201;DHT22;18701;45.588;5.288;2022-12-26T04:42:53;12.30;99.90
32201;DHT22;18701;45.588;5.288;2022-12-26T04:45:38;12.30;99.90
32201;DHT22;18701;45.588;5.288;2022-12-26T04:48:04;12.30;99.90
32201;DHT22;18701;45.588;5.288;2022-12-26T04:50:50;12.30;99.90
32201;DHT22;18701;45.588;5.288;2022-12-26T04:53:16;12.30;99.90
32201;DHT22;18701;45.588;5.288;2022-12-26T04:55:42;12.20;99.90
32201;DHT22;18701;45.588;5.288;2022-12-26T04:58:08;12.30;99.90
32201;DHT22;18701;45.588;5.288;2022-12-26T05:00:34;12.20;99.90
32201;DHT22;18701;45.588;5.288;2022-12-26T05:02:59;12.30;99.90
32201;DHT22;18701;45.588;5.288;2022-12-26T05:05:46;12.20;99.90
32201;DHT22;18701;45.588;5.288;2022-12-26T05:08:50;12.30;99.90
32201;DHT22;18701;45.588;5.288;2022-12-26T05:11:35;12.30;99.90
32201;DHT22;18701;45.588;5.288;2022-12-26T05:14:00;12.30;99.90
32201;DHT22;18701;45.588;5.288;2022-12-26T05:16:27;12.20;99.90
32201;DHT22;18701;45.588;5.288;2022-12-26T05:19:12;12.30;99.90
32201;DHT22;18701;45.588;5.288;2022-12-26T05:21:57;12.30;99.90
32201;DHT22;18701;45.588;5.288;2022-12-26T05:24:43;12.30;99.90
32201;DHT22;18701;45.588;5.288;2022-12-26T05:27:33;12.20;99.90
32201;DHT22;18701;45.588;5.288;2022-12-26T05:30:18;12.20;99.90
32201;DHT22;18701;45.588;5.288;2022-12-26T05:32:43;12.20;99.90
32201;DHT22;18701;45.588;5.288;2022-12-26T05:35:27;12.20;99.90
32201;DHT22;18701;45.588;5.288;2022-12-26T05:37:54;12.20;99.90
32201;DHT22;18701;45.588;5.288;2022-12-26T05:40:19;12.20;99.90
32201;DHT22;18701;45.588;5.288;2022-12-26T05:42:46;12.20;99.90
32201;DHT22;18701;45.588;5.288;2022-12-26T05:45:12;12.20;99.90
32201;DHT22;18701;45.588;5.288;2022-12-26T05:47:37;12.20;99.90
32201;DHT22;18701;45.588;5.288;2022-12-26T05:50:03;12.10;99.90
32201;DHT22;18701;45.588;5.288;2022-12-26T05:52:29;12.10;99.90
32201;DHT22;18701;45.588;5.288;2022-12-26T05:54:55;12.10;99.90
32201;DHT22;18701;45.588;5.288;2022-12-26T05:57:20;12.10;99.90
32201;DHT22;18701;45.588;5.288;2022-12-26T05:59:46;12.10;99.90
32201;DHT22;18701;45.588;5.288;2022-12-26T06:02:11;12.10;99.90
32201;DHT22;18701;45.588;5.288;2022-12-26T06:04:37;12.10;99.90
32201;DHT22;18701;45.588;5.288;2022-12-26T06:07:03;12.10;99.90
32201;DHT22;18701;45.588;5.288;2022-12-26T06:09:28;12.10;99.90
32201;DHT22;18701;45.588;5.288;2022-12-26T06:11:54;12.10;99.90
32201;DHT22;18701;45.588;5.288;2022-12-26T06:14:20;12.20;99.90
32201;DHT22;18701;45.588;5.288;2022-12-26T06:16:45;12.20;99.90
32201;DHT22;18701;45.588;5.288;2022-12-26T06:19:11;12.20;99.90
32201;DHT22;18701;45.588;5.288;2022-12-26T06:21:37;12.20;99.90
32201;DHT22;18701;45.588;5.288;2022-12-26T06:24:02;12.20;99.90
32201;DHT22;18701;45.588;5.288;2022-12-26T06:26:28;12.20;99.90
32201;DHT22;18701;45.588;5.288;2022-12-26T06:28:53;12.30;99.90
32201;DHT22;18701;45.588;5.288;2022-12-26T06:31:22;12.30;99.90
32201;DHT22;18701;45.588;5.288;2022-12-26T06:33:55;12.30;99.90
32201;DHT22;18701;45.588;5.288;2022-12-26T06:36:24;12.20;99.90
32201;DHT22;18701;45.588;5.288;2022-12-26T06:38:51;12.20;99.90
32201;DHT22;18701;45.588;5.288;2022-12-26T06:41:19;12.30;99.90
32201;DHT22;18701;45.588;5.288;2022-12-26T06:43:45;12.20;99.90
32201;DHT22;18701;45.588;5.288;2022-12-26T06:46:14;12.20;99.90
32201;DHT22;18701;45.588;5.288;2022-12-26T06:48:40;12.30;99.90
32201;DHT22;18701;45.588;5.288;2022-12-26T06:51:11;12.30;99.90
32201;DHT22;18701;45.588;5.288;2022-12-26T06:53:37;12.30;99.90
32201;DHT22;18701;45.588;5.288;2022-12-26T06:56:14;12.30;99.90
32201;DHT22;18701;45.588;5.288;2022-12-26T06:58:40;12.30;99.90
32201;DHT22;18701;45.588;5.288;2022-12-26T07:01:08;12.30;99.90
32201;DHT22;18701;45.588;5.288;2022-12-26T07:03:34;12.30;99.90
32201;DHT22;18701;45.588;5.288;2022-12-26T07:06:04;12.30;99.90
32201;DHT22;18701;45.588;5.288;2022-12-26T07:08:31;12.40;99.90
32201;DHT22;18701;45.588;5.288;2022-12-26T07:10:56;12.30;99.90
32201;DHT22;18701;45.588;5.288;2022-12-26T07:13:22;12.40;99.90
32201;DHT22;18701;45.588;5.288;2022-12-26T07:15:47;12.40;99.90
32201;DHT22;18701;45.588;5.288;2022-12-26T07:18:13;12.40;99.90
32201;DHT22;18701;45.588;5.288;2022-12-26T07:20:39;12.40;99.90
32201;DHT22;18701;45.588;5.288;2022-12-26T07:23:04;12.50;99.90
32201;DHT22;18701;45.588;5.288;2022-12-26T07:25:30;12.40;99.90
32201;DHT22;18701;45.588;5.288;2022-12-26T07:27:55;12.40;99.90
32201;DHT22;18701;45.588;5.288;2022-12-26T07:30:21;12.40;99.90
32201;DHT22;18701;45.588;5.288;2022-12-26T07:32:47;12.50;99.90
32201;DHT22;18701;45.588;5.288;2022-12-26T07:35:12;12.50;99.90
32201;DHT22;18701;45.588;5.288;2022-12-26T07:37:38;12.50;99.90
32201;DHT22;18701;45.588;5.288;2022-12-26T07:40:04;12.50;99.90
32201;DHT22;18701;45.588;5.288;2022-12-26T07:42:30;12.50;99.90
32201;DHT22;18701;45.588;5.288;2022-12-26T07:44:55;12.50;99.90
32201;DHT22;18701;45.588;5.288;2022-12-26T07:47:21;12.50;99.90
32201;DHT22;18701;45.588;5.288;2022-12-26T07:49:46;12.50;99.90
32201;DHT22;18701;45.588;5.288;2022-12-26T07:52:12;12.50;99.90
32201;DHT22;18701;45.588;5.288;2022-12-26T07:54:38;12.60;99.90
32201;DHT22;18701;45.588;5.288;2022-12-26T07:57:04;12.60;99.90
32201;DHT22;18701;45.588;5.288;2022-12-26T07:59:29;12.60;99.90
32201;DHT22;18701;45.588;5.288;2022-12-26T08:01:55;12.70;99.90
32201;DHT22;18701;45.588;5.288;2022-12-26T08:04:22;12.70;99.90
32201;DHT22;18701;45.588;5.288;2022-12-26T08:06:47;12.70;99.90
32201;DHT22;18701;45.588;5.288;2022-12-26T08:09:14;12.70;99.90
32201;DHT22;18701;45.588;5.288;2022-12-26T08:11:45;12.80;99.90
32201;DHT22;18701;45.588;5.288;2022-12-26T08:14:12;12.80;99.90
32201;DHT22;18701;45.588;5.288;2022-12-26T08:16:38;12.90;99.90
32201;DHT22;18701;45.588;5.288;2022-12-26T08:19:04;12.90;99.90
32201;DHT22;18701;45.588;5.288;2022-12-26T08:21:30;12.90;99.90
32201;DHT22;18701;45.588;5.288;2022-12-26T08:23:56;12.90;99.90
32201;DHT22;18701;45.588;5.288;2022-12-26T08:26:21;12.90;99.90
32201;DHT22;18701;45.588;5.288;2022-12-26T08:28:49;12.90;99.90
32201;DHT22;18701;45.588;5.288;2022-12-26T08:31:16;12.90;99.90
32201;DHT22;18701;45.588;5.288;2022-12-26T08:33:42;13.00;99.90
32201;DHT22;18701;45.588;5.288;2022-12-26T08:36:10;13.00;99.90
32201;DHT22;18701;45.588;5.288;2022-12-26T08:38:38;13.10;99.90
32201;DHT22;18701;45.588;5.288;2022-12-26T08:41:04;13.10;99.90
32201;DHT22;18701;45.588;5.288;2022-12-26T08:43:30;13.10;99.90
32201;DHT22;18701;45.588;5.288;2022-12-26T08:46:08;13.20;99.90
32201;DHT22;18701;45.588;5.288;2022-12-26T08:48:34;13.20;99.90
32201;DHT22;18701;45.588;5.288;2022-12-26T08:51:03;13.20;99.90
32201;DHT22;18701;45.588;5.288;2022-12-26T08:53:30;13.20;99.90
32201;DHT22;18701;45.588;5.288;2022-12-26T08:55:58;13.20;99.90
32201;DHT22;18701;45.588;5.288;2022-12-26T08:58:24;13.20;99.90
32201;DHT22;18701;45.588;5.288;2022-12-26T09:00:50;13.30;99.90
32201;DHT22;18701;45.588;5.288;2022-12-26T09:03:16;13.30;99.90
32201;DHT22;18701;45.588;5.288;2022-12-26T09:05:42;13.40;99.90
32201;DHT22;18701;45.588;5.288;2022-12-26T09:08:08;13.40;99.90
32201;DHT22;18701;45.588;5.288;2022-12-26T09:10:34;13.40;99.90
32201;DHT22;18701;45.588;5.288;2022-12-26T09:13:00;13.50;99.90
32201;DHT22;18701;45.588;5.288;2022-12-26T09:15:25;13.40;99.90
32201;DHT22;18701;45.588;5.288;2022-12-26T09:17:51;13.50;99.90
32201;DHT22;18701;45.588;5.288;2022-12-26T09:20:17;13.50;99.90
32201;DHT22;18701;45.588;5.288;2022-12-26T09:22:42;13.50;99.90
32201;DHT22;18701;45.588;5.288;2022-12-26T09:25:14;13.60;99.90
32201;DHT22;18701;45.588;5.288;2022-12-26T09:27:40;13.60;99.90
32201;DHT22;18701;45.588;5.288;2022-12-26T09:30:06;13.70;99.90
32201;DHT22;18701;45.588;5.288;2022-12-26T09:32:33;13.70;99.90
32201;DHT22;18701;45.588;5.288;2022-12-26T09:34:59;13.80;99.90
32201;DHT22;18701;45.588;5.288;2022-12-26T09:37:25;13.70;99.90
32201;DHT22;18701;45.588;5.288;2022-12-26T09:39:50;13.70;99.90
32201;DHT22;18701;45.588;5.288;2022-12-26T09:45:22;13.80;99.90
32201;DHT22;18701;45.588;5.288;2022-12-26T09:48:06;13.80;99.90
32201;DHT22;18701;45.588;5.288;2022-12-26T09:50:36;13.70;99.90
32201;DHT22;18701;45.588;5.288;2022-12-26T09:53:25;13.70;99.90
32201;DHT22;18701;45.588;5.288;2022-12-26T09:55:58;13.70;99.90
32201;DHT22;18701;45.588;5.288;2022-12-26T10:01:16;13.70;99.90
32201;DHT22;18701;45.588;5.288;2022-12-26T10:03:49;13.80;99.90
32201;DHT22;18701;45.588;5.288;2022-12-26T10:06:18;13.90;99.90
32201;DHT22;18701;45.588;5.288;2022-12-26T10:08:48;13.90;99.90
32201;DHT22;18701;45.588;5.288;2022-12-26T10:14:08;14.10;99.90
32201;DHT22;18701;45.588;5.288;2022-12-26T10:17:29;14.10;99.90
32201;DHT22;18701;45.588;5.288;2022-12-26T10:20:29;14.10;99.90
32201;DHT22;18701;45.588;5.288;2022-12-26T10:28:46;14.20;99.90
32201;DHT22;18701;45.588;5.288;2022-12-26T10:36:36;14.30;99.90
32201;DHT22;18701;45.588;5.288;2022-12-26T10:39:05;14.30;99.90
32201;DHT22;18701;45.588;5.288;2022-12-26T10:41:50;14.40;99.90
32201;DHT22;18701;45.588;5.288;2022-12-26T10:44:16;14.30;99.90
32201;DHT22;18701;45.588;5.288;2022-12-26T10:46:50;14.40;99.90
32201;DHT22;18701;45.588;5.288;2022-12-26T10:49:22;14.50;99.90
32201;DHT22;18701;45.588;5.288;2022-12-26T10:51:50;14.50;99.90
32201;DHT22;18701;45.588;5.288;2022-12-26T10:54:17;14.50;99.90
32201;DHT22;18701;45.588;5.288;2022-12-26T10:56:46;14.50;99.90
32201;DHT22;18701;45.588;5.288;2022-12-26T10:59:21;14.50;99.90
32201;DHT22;18701;45.588;5.288;2022-12-26T11:01:47;14.50;99.90
32201;DHT22;18701;45.588;5.288;2022-12-26T11:04:22;14.50;99.90
32201;DHT22;18701;45.588;5.288;2022-12-26T11:06:52;14.50;99.90
32201;DHT22;18701;45.588;5.288;2022-12-26T11:11:55;14.40;99.90
32201;DHT22;18701;45.588;5.288;2022-12-26T11:14:37;14.40;99.90
32201;DHT22;18701;45.588;5.288;2022-12-26T11:17:24;14.40;99.90
32201;DHT22;18701;45.588;5.288;2022-12-26T11:22:44;14.40;99.90
32201;DHT22;18701;45.588;5.288;2022-12-26T11:25:15;14.40;99.90
32201;DHT22;18701;45.588;5.288;2022-12-26T11:27:54;14.40;99.90
32201;DHT22;18701;45.588;5.288;2022-12-26T11:30:32;14.40;99.90
32201;DHT22;18701;45.588;5.288;2022-12-26T11:38:20;14.40;99.90
32201;DHT22;18701;45.588;5.288;2022-12-26T11:41:36;14.40;99.90
32201;DHT22;18701;45.588;5.288;2022-12-26T11:46:42;14.40;99.90
32201;DHT22;18701;45.588;5.288;2022-12-26T11:51:48;14.40;99.90
32201;DHT22;18701;45.588;5.288;2022-12-26T11:56:48;14.40;99.90
32201;DHT22;18701;45.588;5.288;2022-12-26T11:59:23;14.50;99.90
32201;DHT22;18701;45.588;5.288;2022-12-26T12:02:23;14.60;99.90
32201;DHT22;18701;45.588;5.288;2022-12-26T12:04:52;14.50;99.90
32201;DHT22;18701;45.588;5.288;2022-12-26T12:15:27;14.70;99.90
32201;DHT22;18701;45.588;5.288;2022-12-26T12:20:49;14.80;99.90
32201;DHT22;18701;45.588;5.288;2022-12-26T12:26:11;14.80;99.90
32201;DHT22;18701;45.588;5.288;2022-12-26T12:31:50;14.80;99.90
32201;DHT22;18701;45.588;5.288;2022-12-26T12:34:30;14.70;99.90
32201;DHT22;18701;45.588;5.288;2022-12-26T12:47:55;14.70;99.90
32201;DHT22;18701;45.588;5.288;2022-12-26T12:55:51;14.70;99.90
32201;DHT22;18701;45.588;5.288;2022-12-26T13:01:44;14.70;99.90
32201;DHT22;18701;45.588;5.288;2022-12-26T13:04:20;14.70;99.90
32201;DHT22;18701;45.588;5.288;2022-12-26T13:07:16;14.60;99.90
32201;DHT22;18701;45.588;5.288;2022-12-26T13:09:47;14.60;99.90
32201;DHT22;18701;45.588;5.288;2022-12-26T13:12:21;14.60;99.90
32201;DHT22;18701;45.588;5.288;2022-12-26T13:15:01;14.60;99.90
32201;DHT22;18701;45.588;5.288;2022-12-26T13:20:40;14.60;99.90
32201;DHT22;18701;45.588;5.288;2022-12-26T13:23:28;14.60;99.90
32201;DHT22;18701;45.588;5.288;2022-12-26T13:26:18;14.60;99.90
32201;DHT22;18701;45.588;5.288;2022-12-26T13:28:57;14.70;99.90
32201;DHT22;18701;45.588;5.288;2022-12-26T13:31:24;15.10;99.90
32201;DHT22;18701;45.588;5.288;2022-12-26T13:33:50;15.80;99.90
32201;DHT22;18701;45.588;5.288;2022-12-26T13:36:46;18.60;99.90
32201;DHT22;18701;45.588;5.288;2022-12-26T13:44:39;16.70;99.90
32201;DHT22;18701;45.588;5.288;2022-12-26T13:47:09;16.30;99.90
32201;DHT22;18701;45.588;5.288;2022-12-26T13:49:51;16.00;99.90
32201;DHT22;18701;45.588;5.288;2022-12-26T13:52:37;15.80;99.90
32201;DHT22;18701;45.588;5.288;2022-12-26T13:57:35;15.50;99.90
32201;DHT22;18701;45.588;5.288;2022-12-26T14:00:07;15.50;99.90
32201;DHT22;18701;45.588;5.288;2022-12-26T14:16:47;15.40;99.90
32201;DHT22;18701;45.588;5.288;2022-12-26T14:24:54;15.00;99.90
32201;DHT22;18701;45.588;5.288;2022-12-26T14:31:12;14.80;99.90
32201;DHT22;18701;45.588;5.288;2022-12-26T14:33:55;14.70;99.90
32201;DHT22;18701;45.588;5.288;2022-12-26T14:39:30;14.80;99.90
32201;DHT22;18701;45.588;5.288;2022-12-26T14:44:54;14.60;99.90
32201;DHT22;18701;45.588;5.288;2022-12-26T14:47:42;14.50;99.90
32201;DHT22;18701;45.588;5.288;2022-12-26T14:58:46;14.40;99.90
32201;DHT22;18701;45.588;5.288;2022-12-26T15:29:53;13.80;99.90
32201;DHT22;18701;45.588;5.288;2022-12-26T15:32:36;13.80;99.90
32201;DHT22;18701;45.588;5.288;2022-12-26T15:35:49;13.70;99.90
32201;DHT22;18701;45.588;5.288;2022-12-26T15:42:03;13.50;99.90
32201;DHT22;18701;45.588;5.288;2022-12-26T15:46:35;13.50;99.90
32201;DHT22;18701;45.588;5.288;2022-12-26T16:00:20;13.20;99.90
32201;DHT22;18701;45.588;5.288;2022-12-26T16:06:20;13.20;99.90
32201;DHT22;18701;45.588;5.288;2022-12-26T16:11:59;13.20;99.90
32201;DHT22;18701;45.588;5.288;2022-12-26T16:14:28;13.20;99.90
32201;DHT22;18701;45.588;5.288;2022-12-26T16:19:44;13.20;99.90
32201;DHT22;18701;45.588;5.288;2022-12-26T16:22:30;13.30;99.90
32201;DHT22;18701;45.588;5.288;2022-12-26T16:25:17;13.10;99.90
32201;DHT22;18701;45.588;5.288;2022-12-26T16:27:46;13.10;99.90
32201;DHT22;18701;45.588;5.288;2022-12-26T16:30:18;12.90;99.90
32201;DHT22;18701;45.588;5.288;2022-12-26T16:32:45;13.00;99.90
32201;DHT22;18701;45.588;5.288;2022-12-26T16:35:30;13.00;99.90
32201;DHT22;18701;45.588;5.288;2022-12-26T16:37:57;13.00;99.90
32201;DHT22;18701;45.588;5.288;2022-12-26T16:43:01;13.00;99.90
32201;DHT22;18701;45.588;5.288;2022-12-26T16:45:31;13.00;99.90
32201;DHT22;18701;45.588;5.288;2022-12-26T16:47:57;13.00;99.90
32201;DHT22;18701;45.588;5.288;2022-12-26T16:50:25;12.80;99.90
32201;DHT22;18701;45.588;5.288;2022-12-26T16:53:12;12.90;99.90
32201;DHT22;18701;45.588;5.288;2022-12-26T16:55:44;12.90;99.90
32201;DHT22;18701;45.588;5.288;2022-12-26T16:58:18;12.90;99.90
32201;DHT22;18701;45.588;5.288;2022-12-26T17:01:08;12.90;99.90
32201;DHT22;18701;45.588;5.288;2022-12-26T17:03:47;12.90;99.90
32201;DHT22;18701;45.588;5.288;2022-12-26T17:06:28;12.90;99.90
32201;DHT22;18701;45.588;5.288;2022-12-26T17:08:56;12.80;99.90
32201;DHT22;18701;45.588;5.288;2022-12-26T17:11:29;12.70;99.90
32201;DHT22;18701;45.588;5.288;2022-12-26T17:13:56;12.70;99.90
32201;DHT22;18701;45.588;5.288;2022-12-26T17:16:24;12.70;99.90
32201;DHT22;18701;45.588;5.288;2022-12-26T17:18:53;12.70;99.90
32201;DHT22;18701;45.588;5.288;2022-12-26T17:24:18;12.60;99.90
32201;DHT22;18701;45.588;5.288;2022-12-26T17:26:53;12.60;99.90
32201;DHT22;18701;45.588;5.288;2022-12-26T17:32:33;12.60;99.90
32201;DHT22;18701;45.588;5.288;2022-12-26T17:35:19;12.60;99.90
32201;DHT22;18701;45.588;5.288;2022-12-26T17:37:53;12.60;99.90
32201;DHT22;18701;45.588;5.288;2022-12-26T17:42:53;12.60;99.90
32201;DHT22;18701;45.588;5.288;2022-12-26T17:45:22;12.70;99.90
32201;DHT22;18701;45.588;5.288;2022-12-26T17:47:50;12.60;99.90
32201;DHT22;18701;45.588;5.288;2022-12-26T17:50:16;12.50;99.90
32201;DHT22;18701;45.588;5.288;2022-12-26T17:52:42;12.50;99.90
32201;DHT22;18701;45.588;5.288;2022-12-26T17:55:17;12.50;99.90
32201;DHT22;18701;45.588;5.288;2022-12-26T17:57:45;12.40;99.90
32201;DHT22;18701;45.588;5.288;2022-12-26T18:00:20;12.40;99.90
32201;DHT22;18701;45.588;5.288;2022-12-26T18:02:46;12.40;99.90
32201;DHT22;18701;45.588;5.288;2022-12-26T18:05:12;12.40;99.90
32201;DHT22;18701;45.588;5.288;2022-12-26T18:07:41;12.30;99.90
32201;DHT22;18701;45.588;5.288;2022-12-26T18:10:22;12.40;99.90
32201;DHT22;18701;45.588;5.288;2022-12-26T18:12:49;12.50;99.90
32201;DHT22;18701;45.588;5.288;2022-12-26T18:15:15;12.50;99.90
32201;DHT22;18701;45.588;5.288;2022-12-26T18:17:41;12.40;99.90
32201;DHT22;18701;45.588;5.288;2022-12-26T18:20:07;12.40;99.90
32201;DHT22;18701;45.588;5.288;2022-12-26T18:22:35;12.50;99.90
32201;DHT22;18701;45.588;5.288;2022-12-26T18:25:01;12.40;99.90
32201;DHT22;18701;45.588;5.288;2022-12-26T18:27:29;12.50;99.90
32201;DHT22;18701;45.588;5.288;2022-12-26T18:29:56;12.30;99.90
32201;DHT22;18701;45.588;5.288;2022-12-26T18:32:27;12.30;99.90
32201;DHT22;18701;45.588;5.288;2022-12-26T18:34:53;12.40;99.90
32201;DHT22;18701;45.588;5.288;2022-12-26T18:37:21;12.40;99.90
32201;DHT22;18701;45.588;5.288;2022-12-26T18:39:47;12.30;99.90
32201;DHT22;18701;45.588;5.288;2022-12-26T18:42:14;12.30;99.90
32201;DHT22;18701;45.588;5.288;2022-12-26T18:44:41;12.30;99.90
32201;DHT22;18701;45.588;5.288;2022-12-26T18:47:11;12.30;99.90
32201;DHT22;18701;45.588;5.288;2022-12-26T18:49:37;12.30;99.90
32201;DHT22;18701;45.588;5.288;2022-12-26T18:52:02;12.20;99.90
32201;DHT22;18701;45.588;5.288;2022-12-26T18:54:28;12.30;99.90
32201;DHT22;18701;45.588;5.288;2022-12-26T18:56:54;12.20;99.90
32201;DHT22;18701;45.588;5.288;2022-12-26T18:59:19;12.30;99.90
32201;DHT22;18701;45.588;5.288;2022-12-26T19:01:45;12.20;99.90
32201;DHT22;18701;45.588;5.288;2022-12-26T19:04:13;12.20;99.90
32201;DHT22;18701;45.588;5.288;2022-12-26T19:06:39;12.20;99.90
32201;DHT22;18701;45.588;5.288;2022-12-26T19:09:05;12.30;99.90
32201;DHT22;18701;45.588;5.288;2022-12-26T19:11:31;12.30;99.90
32201;DHT22;18701;45.588;5.288;2022-12-26T19:13:56;12.20;99.90
32201;DHT22;18701;45.588;5.288;2022-12-26T19:16:22;12.30;99.90
32201;DHT22;18701;45.588;5.288;2022-12-26T19:18:48;12.20;99.90
32201;DHT22;18701;45.588;5.288;2022-12-26T19:21:15;12.20;99.90
32201;DHT22;18701;45.588;5.288;2022-12-26T19:23:41;12.20;99.90
32201;DHT22;18701;45.588;5.288;2022-12-26T19:26:12;12.10;99.90
32201;DHT22;18701;45.588;5.288;2022-12-26T19:28:39;12.10;99.90
32201;DHT22;18701;45.588;5.288;2022-12-26T19:31:09;12.10;99.90
32201;DHT22;18701;45.588;5.288;2022-12-26T19:33:35;12.10;99.90
32201;DHT22;18701;45.588;5.288;2022-12-26T19:36:01;12.10;99.90
32201;DHT22;18701;45.588;5.288;2022-12-26T19:38:27;12.10;99.90
32201;DHT22;18701;45.588;5.288;2022-12-26T19:40:52;12.10;99.90
32201;DHT22;18701;45.588;5.288;2022-12-26T19:43:18;12.10;99.90
32201;DHT22;18701;45.588;5.288;2022-12-26T19:45:44;12.00;99.90
32201;DHT22;18701;45.588;5.288;2022-12-26T19:48:10;12.10;99.90
32201;DHT22;18701;45.588;5.288;2022-12-26T19:50:36;12.10;99.90
32201;DHT22;18701;45.588;5.288;2022-12-26T19:53:01;12.00;99.90
32201;DHT22;18701;45.588;5.288;2022-12-26T19:55:27;11.90;99.90
32201;DHT22;18701;45.588;5.288;2022-12-26T19:57:53;11.90;99.90
32201;DHT22;18701;45.588;5.288;2022-12-26T20:00:18;11.90;99.90
32201;DHT22;18701;45.588;5.288;2022-12-26T20:02:44;11.80;99.90
32201;DHT22;18701;45.588;5.288;2022-12-26T20:05:10;11.90;99.90